sensor_id;sensor_type;location;lat;lon;timestamp;pressure;altitude;pressure_sealevel;temperature;humidity
5753;BME280;2901;42.140;24.760;2023-06-14T00:02:09;99070.66;;;21.35;100.00
5753;BME280;2901;42.140;24.760;2023-06-14T00:04:35;99062.41;;;21.41;100.00
5753;BME280;2901;42.140;24.760;2023-06-14T00:07:01;99052.69;;;21.27;100.00
5753;BME280;2901;42.140;24.760;2023-06-14T00:09:26;99072.03;;;21.26;100.00
5753;BME280;2901;42.140;24.760;2023-06-14T00:11:52;99069.13;;;21.31;100.00
5753;BME280;2901;42.140;24.760;2023-06-14T00:14:17;99066.00;;;21.24;100.00
5753;BME280;2901;42.140;24.760;2023-06-14T00:16:43;99057.34;;;21.22;100.00
5753;BME280;2901;42.140;24.760;2023-06-14T00:19:09;99069.75;;;21.20;100.00
5753;BME280;2901;42.140;24.760;2023-06-14T00:21:35;99073.56;;;21.14;100.00
5753;BME280;2901;42.140;24.760;2023-06-14T00:24:01;99054.78;;;21.05;100.00
5753;BME280;2901;42.140;24.760;2023-06-14T00:26:27;99063.81;;;21.16;100.00
5753;BME280;2901;42.140;24.760;2023-06-14T00:28:53;99069.84;;;21.18;100.00
5753;BME280;2901;42.140;24.760;2023-06-14T00:31:19;99062.03;;;21.17;100.00
5753;BME280;2901;42.140;24.760;2023-06-14T00:33:45;99061.84;;;21.20;100.00
5753;BME280;2901;42.140;24.760;2023-06-14T00:36:10;99053.00;;;21.21;100.00
5753;BME280;2901;42.140;24.760;2023-06-14T00:38:35;99054.13;;;21.17;100.00
5753;BME280;2901;42.140;24.760;2023-06-14T00:41:01;99057.59;;;21.17;100.00
5753;BME280;2901;42.140;24.760;2023-06-14T00:43:26;99053.47;;;21.13;100.00
5753;BME280;2901;42.140;24.760;2023-06-14T00:45:51;99057.09;;;21.11;100.00
5753;BME280;2901;42.140;24.760;2023-06-14T00:48:17;99050.16;;;21.10;100.00
5753;BME280;2901;42.140;24.760;2023-06-14T00:50:44;99046.19;;;21.01;100.00
5753;BME280;2901;42.140;24.760;2023-06-14T00:53:14;99050.94;;;20.95;100.00
5753;BME280;2901;42.140;24.760;2023-06-14T00:55:40;99050.38;;;20.90;100.00
5753;BME280;2901;42.140;24.760;2023-06-14T00:58:06;99037.72;;;20.81;100.00
5753;BME280;2901;42.140;24.760;2023-06-14T01:00:31;99043.66;;;20.68;100.00
5753;BME280;2901;42.140;24.760;2023-06-14T01:02:57;99045.00;;;20.76;100.00
5753;BME280;2901;42.140;24.760;2023-06-14T01:05:22;99045.53;;;20.66;100.00
5753;BME280;2901;42.140;24.760;2023-06-14T01:10:49;99050.78;;;20.51;100.00
5753;BME280;2901;42.140;24.760;2023-06-14T01:13:45;99045.69;;;20.48;100.00
5753;BME280;2901;42.140;24.760;2023-06-14T01:16:11;99041.19;;;20.50;100.00
5753;BME280;2901;42.140;24.760;2023-06-14T01:18:37;99039.75;;;20.44;100.00
5753;BME280;2901;42.140;24.760;2023-06-14T01:21:03;99033.78;;;20.41;100.00
5753;BME280;2901;42.140;24.760;2023-06-14T01:23:33;99047.19;;;20.36;100.00
5753;BME280;2901;42.140;24.760;2023-06-14T01:26:00;99039.69;;;20.29;100.00
5753;BME280;2901;42.140;24.760;2023-06-14T01:28:28;99049.22;;;20.31;100.00
5753;BME280;2901;42.140;24.760;2023-06-14T01:30:59;99043.34;;;20.42;100.00
5753;BME280;2901;42.140;24.760;2023-06-14T01:33:27;99045.91;;;20.43;100.00
5753;BME280;2901;42.140;24.760;2023-06-14T01:35:54;99040.50;;;20.46;100.00
5753;BME280;2901;42.140;24.760;2023-06-14T01:38:23;99041.09;;;20.51;100.00
5753;BME280;2901;42.140;24.760;2023-06-14T01:40:50;99041.88;;;20.53;100.00
5753;BME280;2901;42.140;24.760;2023-06-14T01:43:16;99039.22;;;20.53;100.00
5753;BME280;2901;42.140;24.760;2023-06-14T01:45:42;99041.25;;;20.48;100.00
5753;BME280;2901;42.140;24.760;2023-06-14T01:48:08;99035.97;;;20.48;100.00
5753;BME280;2901;42.140;24.760;2023-06-14T01:50:34;99035.84;;;20.51;100.00
5753;BME280;2901;42.140;24.760;2023-06-14T01:53:00;99033.97;;;20.53;100.00
5753;BME280;2901;42.140;24.760;2023-06-14T01:55:25;99033.81;;;20.56;100.00
5753;BME280;2901;42.140;24.760;2023-06-14T01:57:52;99033.47;;;20.62;100.00
5753;BME280;2901;42.140;24.760;2023-06-14T02:00:18;99044.91;;;20.61;100.00
5753;BME280;2901;42.140;24.760;2023-06-14T02:02:44;99035.50;;;20.57;100.00
5753;BME280;2901;42.140;24.760;2023-06-14T02:05:11;99040.00;;;20.55;100.00
5753;BME280;2901;42.140;24.760;2023-06-14T02:07:36;99034.31;;;20.63;100.00
5753;BME280;2901;42.140;24.760;2023-06-14T02:10:05;99042.13;;;20.64;100.00
5753;BME280;2901;42.140;24.760;2023-06-14T02:12:31;99035.34;;;20.60;100.00
5753;BME280;2901;42.140;24.760;2023-06-14T02:14:56;99046.38;;;20.67;100.00
5753;BME280;2901;42.140;24.760;2023-06-14T02:17:23;99040.59;;;20.60;100.00
5753;BME280;2901;42.140;24.760;2023-06-14T02:19:48;99048.72;;;20.56;100.00
5753;BME280;2901;42.140;24.760;2023-06-14T02:22:15;99047.47;;;20.47;100.00
5753;BME280;2901;42.140;24.760;2023-06-14T02:24:41;99042.28;;;20.46;100.00
5753;BME280;2901;42.140;24.760;2023-06-14T02:27:07;99040.31;;;20.49;100.00
5753;BME280;2901;42.140;24.760;2023-06-14T02:29:33;99047.69;;;20.43;100.00
5753;BME280;2901;42.140;24.760;2023-06-14T02:31:59;99049.56;;;20.41;100.00
5753;BME280;2901;42.140;24.760;2023-06-14T02:34:24;99050.84;;;20.49;100.00
5753;BME280;2901;42.140;24.760;2023-06-14T02:36:49;99045.16;;;20.41;100.00
5753;BME280;2901;42.140;24.760;2023-06-14T02:39:15;99050.44;;;20.41;100.00
5753;BME280;2901;42.140;24.760;2023-06-14T02:41:41;99055.25;;;20.49;100.00
5753;BME280;2901;42.140;24.760;2023-06-14T02:44:07;99052.09;;;20.42;100.00
5753;BME280;2901;42.140;24.760;2023-06-14T02:46:32;99058.91;;;20.46;100.00
5753;BME280;2901;42.140;24.760;2023-06-14T02:48:58;99055.75;;;20.40;100.00
5753;BME280;2901;42.140;24.760;2023-06-14T02:51:24;99051.69;;;20.34;100.00
5753;BME280;2901;42.140;24.760;2023-06-14T02:53:49;99052.16;;;20.25;100.00
5753;BME280;2901;42.140;24.760;2023-06-14T02:56:15;99048.59;;;20.09;100.00
5753;BME280;2901;42.140;24.760;2023-06-14T02:58:42;99048.06;;;20.02;100.00
5753;BME280;2901;42.140;24.760;2023-06-14T03:01:08;99047.94;;;20.05;100.00
5753;BME280;2901;42.140;24.760;2023-06-14T03:03:38;99060.91;;;20.08;100.00
5753;BME280;2901;42.140;24.760;2023-06-14T03:06:03;99055.72;;;20.07;100.00
5753;BME280;2901;42.140;24.760;2023-06-14T03:08:32;99059.03;;;20.10;100.00
5753;BME280;2901;42.140;24.760;2023-06-14T03:11:04;99069.50;;;20.12;100.00
5753;BME280;2901;42.140;24.760;2023-06-14T03:13:30;99070.31;;;20.12;100.00
5753;BME280;2901;42.140;24.760;2023-06-14T03:15:57;99073.56;;;20.17;100.00
5753;BME280;2901;42.140;24.760;2023-06-14T03:18:23;99071.53;;;20.23;100.00
5753;BME280;2901;42.140;24.760;2023-06-14T03:20:48;99077.47;;;20.26;100.00
5753;BME280;2901;42.140;24.760;2023-06-14T03:23:14;99080.84;;;20.30;100.00
5753;BME280;2901;42.140;24.760;2023-06-14T03:25:39;99074.81;;;20.28;100.00
5753;BME280;2901;42.140;24.760;2023-06-14T03:28:07;99071.38;;;20.26;100.00
5753;BME280;2901;42.140;24.760;2023-06-14T03:30:33;99075.50;;;20.31;100.00
5753;BME280;2901;42.140;24.760;2023-06-14T03:32:58;99081.06;;;20.25;100.00
5753;BME280;2901;42.140;24.760;2023-06-14T03:35:26;99084.47;;;20.27;100.00
5753;BME280;2901;42.140;24.760;2023-06-14T03:37:51;99085.94;;;20.33;100.00
5753;BME280;2901;42.140;24.760;2023-06-14T03:40:18;99087.53;;;20.35;100.00
5753;BME280;2901;42.140;24.760;2023-06-14T03:42:44;99094.19;;;20.42;100.00
5753;BME280;2901;42.140;24.760;2023-06-14T03:45:09;99094.03;;;20.45;100.00
5753;BME280;2901;42.140;24.760;2023-06-14T03:47:35;99098.97;;;20.51;100.00
5753;BME280;2901;42.140;24.760;2023-06-14T03:50:02;99104.75;;;20.58;100.00
5753;BME280;2901;42.140;24.760;2023-06-14T03:52:27;99111.91;;;20.71;100.00
5753;BME280;2901;42.140;24.760;2023-06-14T03:54:53;99114.47;;;20.73;100.00
5753;BME280;2901;42.140;24.760;2023-06-14T03:57:19;99117.31;;;20.68;100.00
5753;BME280;2901;42.140;24.760;2023-06-14T03:59:45;99123.53;;;20.67;100.00
5753;BME280;2901;42.140;24.760;2023-06-14T04:02:10;99123.59;;;20.66;100.00
5753;BME280;2901;42.140;24.760;2023-06-14T04:04:37;99117.50;;;20.65;100.00
5753;BME280;2901;42.140;24.760;2023-06-14T04:07:02;99112.06;;;20.68;100.00
5753;BME280;2901;42.140;24.760;2023-06-14T04:09:31;99121.75;;;20.68;100.00
5753;BME280;2901;42.140;24.760;2023-06-14T04:11:56;99124.28;;;20.69;100.00
5753;BME280;2901;42.140;24.760;2023-06-14T04:14:22;99118.28;;;20.67;100.00
5753;BME280;2901;42.140;24.760;2023-06-14T04:16:48;99125.91;;;20.72;100.00
5753;BME280;2901;42.140;24.760;2023-06-14T04:19:15;99123.97;;;20.76;100.00
5753;BME280;2901;42.140;24.760;2023-06-14T04:21:40;99125.84;;;20.74;100.00
5753;BME280;2901;42.140;24.760;2023-06-14T04:24:06;99120.06;;;20.83;100.00
5753;BME280;2901;42.140;24.760;2023-06-14T04:26:32;99121.84;;;20.98;100.00
5753;BME280;2901;42.140;24.760;2023-06-14T04:28:58;99120.28;;;21.11;100.00
5753;BME280;2901;42.140;24.760;2023-06-14T04:31:30;99123.63;;;21.30;100.00
5753;BME280;2901;42.140;24.760;2023-06-14T04:33:58;99127.16;;;21.45;100.00
5753;BME280;2901;42.140;24.760;2023-06-14T04:36:24;99117.03;;;21.53;100.00
5753;BME280;2901;42.140;24.760;2023-06-14T04:38:50;99120.19;;;21.59;100.00
5753;BME280;2901;42.140;24.760;2023-06-14T04:41:20;99131.72;;;21.72;100.00
5753;BME280;2901;42.140;24.760;2023-06-14T04:43:46;99132.53;;;21.89;100.00
5753;BME280;2901;42.140;24.760;2023-06-14T04:46:14;99136.91;;;21.90;100.00
5753;BME280;2901;42.140;24.760;2023-06-14T04:48:40;99133.97;;;21.94;100.00
5753;BME280;2901;42.140;24.760;2023-06-14T04:51:07;99137.69;;;22.06;100.00
5753;BME280;2901;42.140;24.760;2023-06-14T04:53:32;99133.41;;;22.19;100.00
5753;BME280;2901;42.140;24.760;2023-06-14T04:55:58;99134.53;;;22.29;100.00
5753;BME280;2901;42.140;24.760;2023-06-14T04:58:23;99140.78;;;22.42;100.00
5753;BME280;2901;42.140;24.760;2023-06-14T05:00:48;99143.13;;;22.47;100.00
5753;BME280;2901;42.140;24.760;2023-06-14T05:03:14;99149.38;;;22.46;100.00
5753;BME280;2901;42.140;24.760;2023-06-14T05:05:40;99142.09;;;22.35;100.00
5753;BME280;2901;42.140;24.760;2023-06-14T05:08:07;99146.06;;;22.42;100.00
5753;BME280;2901;42.140;24.760;2023-06-14T05:10:32;99143.13;;;22.47;100.00
5753;BME280;2901;42.140;24.760;2023-06-14T05:13:00;99144.25;;;22.57;100.00
5753;BME280;2901;42.140;24.760;2023-06-14T05:15:25;99137.94;;;22.59;100.00
5753;BME280;2901;42.140;24.760;2023-06-14T05:17:51;99142.84;;;22.51;100.00
5753;BME280;2901;42.140;24.760;2023-06-14T05:20:24;99150.09;;;22.48;100.00
5753;BME280;2901;42.140;24.760;2023-06-14T05:22:53;99156.13;;;22.50;100.00
5753;BME280;2901;42.140;24.760;2023-06-14T05:25:19;99159.06;;;22.59;100.00
5753;BME280;2901;42.140;24.760;2023-06-14T05:27:46;99160.47;;;22.51;100.00
5753;BME280;2901;42.140;24.760;2023-06-14T05:30:12;99164.91;;;22.50;100.00
5753;BME280;2901;42.140;24.760;2023-06-14T05:32:38;99152.25;;;22.41;100.00
5753;BME280;2901;42.140;24.760;2023-06-14T05:35:03;99174.50;;;22.37;100.00
5753;BME280;2901;42.140;24.760;2023-06-14T05:37:29;99166.50;;;22.39;100.00
5753;BME280;2901;42.140;24.760;2023-06-14T05:39:56;99175.16;;;22.41;100.00
5753;BME280;2901;42.140;24.760;2023-06-14T05:42:21;99179.41;;;22.43;100.00
5753;BME280;2901;42.140;24.760;2023-06-14T05:44:46;99175.75;;;22.46;100.00
5753;BME280;2901;42.140;24.760;2023-06-14T05:47:13;99184.41;;;22.48;100.00
5753;BME280;2901;42.140;24.760;2023-06-14T05:49:38;99181.22;;;22.57;100.00
5753;BME280;2901;42.140;24.760;2023-06-14T05:52:04;99183.25;;;22.67;100.00
5753;BME280;2901;42.140;24.760;2023-06-14T05:54:30;99186.44;;;22.87;100.00
5753;BME280;2901;42.140;24.760;2023-06-14T05:56:55;99190.78;;;22.88;100.00
5753;BME280;2901;42.140;24.760;2023-06-14T05:59:21;99191.34;;;23.07;100.00
5753;BME280;2901;42.140;24.760;2023-06-14T06:01:46;99190.78;;;23.16;100.00
5753;BME280;2901;42.140;24.760;2023-06-14T06:04:11;99193.03;;;23.22;100.00
5753;BME280;2901;42.140;24.760;2023-06-14T06:06:37;99193.59;;;23.27;100.00
5753;BME280;2901;42.140;24.760;2023-06-14T06:09:02;99187.19;;;23.31;100.00
5753;BME280;2901;42.140;24.760;2023-06-14T06:11:28;99194.72;;;23.23;100.00
5753;BME280;2901;42.140;24.760;2023-06-14T06:13:53;99190.69;;;23.17;99.90
5753;BME280;2901;42.140;24.760;2023-06-14T06:16:18;99190.38;;;23.22;100.00
5753;BME280;2901;42.140;24.760;2023-06-14T06:18:44;99189.72;;;23.18;100.00
5753;BME280;2901;42.140;24.760;2023-06-14T06:21:09;99192.66;;;23.28;99.26
5753;BME280;2901;42.140;24.760;2023-06-14T06:23:35;99186.53;;;23.27;99.46
5753;BME280;2901;42.140;24.760;2023-06-14T06:26:00;99196.06;;;23.44;99.39
5753;BME280;2901;42.140;24.760;2023-06-14T06:28:26;99198.66;;;23.58;98.29
5753;BME280;2901;42.140;24.760;2023-06-14T06:30:51;99193.03;;;23.50;97.33
5753;BME280;2901;42.140;24.760;2023-06-14T06:33:17;99196.72;;;23.48;97.25
5753;BME280;2901;42.140;24.760;2023-06-14T06:35:42;99198.66;;;23.58;97.52
5753;BME280;2901;42.140;24.760;2023-06-14T06:38:08;99192.84;;;23.80;97.72
5753;BME280;2901;42.140;24.760;2023-06-14T06:40:35;99203.19;;;24.10;96.09
5753;BME280;2901;42.140;24.760;2023-06-14T06:43:02;99203.50;;;24.05;92.49
5753;BME280;2901;42.140;24.760;2023-06-14T06:45:28;99206.72;;;23.84;93.04
5753;BME280;2901;42.140;24.760;2023-06-14T06:47:53;99202.28;;;23.84;94.33
5753;BME280;2901;42.140;24.760;2023-06-14T06:50:19;99202.41;;;23.95;91.78
5753;BME280;2901;42.140;24.760;2023-06-14T06:52:50;99199.69;;;24.09;92.57
5753;BME280;2901;42.140;24.760;2023-06-14T06:55:16;99199.34;;;24.28;91.72
5753;BME280;2901;42.140;24.760;2023-06-14T06:57:41;99201.63;;;24.47;91.02
5753;BME280;2901;42.140;24.760;2023-06-14T07:00:07;99212.09;;;24.48;90.12
5753;BME280;2901;42.140;24.760;2023-06-14T07:02:34;99201.91;;;24.42;90.55
5753;BME280;2901;42.140;24.760;2023-06-14T07:05:00;99211.03;;;24.51;90.74
5753;BME280;2901;42.140;24.760;2023-06-14T07:07:25;99201.50;;;24.48;90.08
5753;BME280;2901;42.140;24.760;2023-06-14T07:09:50;99208.28;;;24.52;91.16
5753;BME280;2901;42.140;24.760;2023-06-14T07:12:16;99207.00;;;24.70;90.09
5753;BME280;2901;42.140;24.760;2023-06-14T07:14:41;99203.13;;;24.89;89.66
5753;BME280;2901;42.140;24.760;2023-06-14T07:17:07;99203.53;;;25.08;89.40
5753;BME280;2901;42.140;24.760;2023-06-14T07:19:32;99204.00;;;25.38;87.26
5753;BME280;2901;42.140;24.760;2023-06-14T07:21:58;99208.38;;;25.75;86.05
5753;BME280;2901;42.140;24.760;2023-06-14T07:24:24;99203.66;;;25.92;85.53
5753;BME280;2901;42.140;24.760;2023-06-14T07:26:49;99194.50;;;26.19;83.90
5753;BME280;2901;42.140;24.760;2023-06-14T07:29:14;99201.75;;;26.28;82.74
5753;BME280;2901;42.140;24.760;2023-06-14T07:31:41;99202.50;;;26.42;82.03
5753;BME280;2901;42.140;24.760;2023-06-14T07:34:07;99199.06;;;26.52;82.12
5753;BME280;2901;42.140;24.760;2023-06-14T07:36:32;99191.84;;;26.19;82.54
5753;BME280;2901;42.140;24.760;2023-06-14T07:38:57;99199.63;;;26.34;82.31
5753;BME280;2901;42.140;24.760;2023-06-14T07:41:23;99203.06;;;26.23;83.38
5753;BME280;2901;42.140;24.760;2023-06-14T07:43:48;99202.84;;;26.26;83.72
5753;BME280;2901;42.140;24.760;2023-06-14T07:46:14;99199.84;;;26.30;82.35
5753;BME280;2901;42.140;24.760;2023-06-14T07:48:40;99197.75;;;26.23;81.43
5753;BME280;2901;42.140;24.760;2023-06-14T07:51:05;99194.69;;;26.40;81.48
5753;BME280;2901;42.140;24.760;2023-06-14T07:53:31;99196.16;;;26.55;80.44
5753;BME280;2901;42.140;24.760;2023-06-14T07:55:57;99195.22;;;26.67;79.97
5753;BME280;2901;42.140;24.760;2023-06-14T07:58:22;99192.72;;;26.77;79.24
5753;BME280;2901;42.140;24.760;2023-06-14T08:00:47;99199.88;;;26.99;77.21
5753;BME280;2901;42.140;24.760;2023-06-14T08:03:13;99196.88;;;27.03;76.43
5753;BME280;2901;42.140;24.760;2023-06-14T08:05:39;99204.81;;;27.25;75.81
5753;BME280;2901;42.140;24.760;2023-06-14T08:08:04;99199.97;;;27.42;74.70
5753;BME280;2901;42.140;24.760;2023-06-14T08:10:30;99203.13;;;27.36;74.63
5753;BME280;2901;42.140;24.760;2023-06-14T08:12:55;99210.50;;;27.54;73.03
5753;BME280;2901;42.140;24.760;2023-06-14T08:15:21;99209.91;;;27.51;71.88
5753;BME280;2901;42.140;24.760;2023-06-14T08:17:46;99210.84;;;27.61;71.58
5753;BME280;2901;42.140;24.760;2023-06-14T08:20:12;99217.56;;;27.87;70.49
5753;BME280;2901;42.140;24.760;2023-06-14T08:22:39;99216.91;;;28.06;69.27
5753;BME280;2901;42.140;24.760;2023-06-14T08:25:07;99229.94;;;28.20;68.04
5753;BME280;2901;42.140;24.760;2023-06-14T08:27:33;99219.69;;;28.36;67.94
5753;BME280;2901;42.140;24.760;2023-06-14T08:29:58;99219.59;;;28.58;67.89
5753;BME280;2901;42.140;24.760;2023-06-14T08:32:24;99221.28;;;28.80;66.03
5753;BME280;2901;42.140;24.760;2023-06-14T08:34:49;99228.31;;;29.11;64.80
5753;BME280;2901;42.140;24.760;2023-06-14T08:37:14;99229.03;;;29.34;63.75
5753;BME280;2901;42.140;24.760;2023-06-14T08:39:41;99237.94;;;29.54;61.87
5753;BME280;2901;42.140;24.760;2023-06-14T08:42:07;99227.44;;;29.81;61.22
5753;BME280;2901;42.140;24.760;2023-06-14T08:44:34;99234.81;;;29.98;59.67
5753;BME280;2901;42.140;24.760;2023-06-14T08:47:00;99226.69;;;30.09;60.17
5753;BME280;2901;42.140;24.760;2023-06-14T08:49:25;99230.22;;;30.19;60.00
5753;BME280;2901;42.140;24.760;2023-06-14T08:51:57;99232.16;;;30.08;59.05
5753;BME280;2901;42.140;24.760;2023-06-14T08:54:25;99230.91;;;30.02;59.12
5753;BME280;2901;42.140;24.760;2023-06-14T08:56:53;99228.56;;;29.69;59.12
5753;BME280;2901;42.140;24.760;2023-06-14T08:59:18;99226.41;;;29.53;60.17
5753;BME280;2901;42.140;24.760;2023-06-14T09:01:46;99223.47;;;29.56;60.58
5753;BME280;2901;42.140;24.760;2023-06-14T09:04:13;99223.13;;;29.80;59.83
5753;BME280;2901;42.140;24.760;2023-06-14T09:06:38;99224.44;;;30.05;59.64
5753;BME280;2901;42.140;24.760;2023-06-14T09:09:03;99227.25;;;30.13;59.34
5753;BME280;2901;42.140;24.760;2023-06-14T09:11:30;99223.44;;;30.06;58.29
5753;BME280;2901;42.140;24.760;2023-06-14T09:13:55;99219.28;;;29.63;58.44
5753;BME280;2901;42.140;24.760;2023-06-14T09:16:21;99211.75;;;29.38;59.33
5753;BME280;2901;42.140;24.760;2023-06-14T09:18:47;99212.66;;;29.58;59.87
5753;BME280;2901;42.140;24.760;2023-06-14T09:21:14;99214.03;;;29.43;60.94
5753;BME280;2901;42.140;24.760;2023-06-14T09:23:49;99215.16;;;29.19;60.57
5753;BME280;2901;42.140;24.760;2023-06-14T09:26:17;99209.63;;;29.32;61.06
5753;BME280;2901;42.140;24.760;2023-06-14T09:28:46;99209.09;;;29.38;61.22
5753;BME280;2901;42.140;24.760;2023-06-14T09:31:13;99203.91;;;29.16;60.47
5753;BME280;2901;42.140;24.760;2023-06-14T09:33:42;99198.63;;;28.95;62.49
5753;BME280;2901;42.140;24.760;2023-06-14T09:36:24;99200.31;;;28.96;62.27
5753;BME280;2901;42.140;24.760;2023-06-14T09:38:58;99197.81;;;28.95;61.84
5753;BME280;2901;42.140;24.760;2023-06-14T09:41:38;99205.53;;;29.28;60.48
5753;BME280;2901;42.140;24.760;2023-06-14T09:44:06;99205.22;;;29.71;58.14
5753;BME280;2901;42.140;24.760;2023-06-14T09:46:32;99198.28;;;30.08;57.80
5753;BME280;2901;42.140;24.760;2023-06-14T09:48:59;99199.13;;;30.09;56.55
5753;BME280;2901;42.140;24.760;2023-06-14T09:51:25;99196.59;;;29.98;57.02
5753;BME280;2901;42.140;24.760;2023-06-14T09:53:52;99203.91;;;29.86;57.73
5753;BME280;2901;42.140;24.760;2023-06-14T09:56:34;99201.28;;;29.56;58.66
5753;BME280;2901;42.140;24.760;2023-06-14T09:59:02;99199.59;;;29.24;59.88
5753;BME280;2901;42.140;24.760;2023-06-14T10:01:30;99190.53;;;29.06;61.12
5753;BME280;2901;42.140;24.760;2023-06-14T10:04:04;99184.28;;;29.17;61.56
5753;BME280;2901;42.140;24.760;2023-06-14T10:06:31;99191.25;;;29.08;61.56
5753;BME280;2901;42.140;24.760;2023-06-14T10:08:58;99183.44;;;29.16;61.86
5753;BME280;2901;42.140;24.760;2023-06-14T10:11:27;99187.13;;;29.25;61.44
5753;BME280;2901;42.140;24.760;2023-06-14T10:13:57;99182.69;;;29.35;61.77
5753;BME280;2901;42.140;24.760;2023-06-14T10:16:45;99188.88;;;29.45;63.95
5753;BME280;2901;42.140;24.760;2023-06-14T10:19:23;99188.22;;;29.22;66.50
5753;BME280;2901;42.140;24.760;2023-06-14T10:24:51;99182.69;;;29.45;64.02
5753;BME280;2901;42.140;24.760;2023-06-14T10:27:17;99186.00;;;29.77;64.02
5753;BME280;2901;42.140;24.760;2023-06-14T10:32:20;99163.81;;;30.53;60.55
5753;BME280;2901;42.140;24.760;2023-06-14T10:34:53;99162.19;;;30.79;57.69
5753;BME280;2901;42.140;24.760;2023-06-14T10:37:19;99165.09;;;30.96;56.63
5753;BME280;2901;42.140;24.760;2023-06-14T10:39:45;99162.16;;;31.26;55.52
5753;BME280;2901;42.140;24.760;2023-06-14T10:42:15;99161.84;;;31.29;56.15
5753;BME280;2901;42.140;24.760;2023-06-14T10:44:55;99172.06;;;31.43;56.22
5753;BME280;2901;42.140;24.760;2023-06-14T10:47:24;99168.69;;;31.51;54.73
5753;BME280;2901;42.140;24.760;2023-06-14T10:49:54;99167.91;;;31.58;53.64
5753;BME280;2901;42.140;24.760;2023-06-14T10:52:27;99163.03;;;31.54;53.12
5753;BME280;2901;42.140;24.760;2023-06-14T10:57:48;99156.50;;;31.29;55.16
5753;BME280;2901;42.140;24.760;2023-06-14T11:00:28;99152.72;;;31.31;56.38
5753;BME280;2901;42.140;24.760;2023-06-14T11:05:29;99162.03;;;31.45;52.84
5753;BME280;2901;42.140;24.760;2023-06-14T11:13:02;99149.94;;;31.68;51.40
5753;BME280;2901;42.140;24.760;2023-06-14T11:15:32;99158.22;;;31.57;50.26
5753;BME280;2901;42.140;24.760;2023-06-14T11:18:00;99157.28;;;31.39;49.89
5753;BME280;2901;42.140;24.760;2023-06-14T11:20:27;99153.94;;;31.10;51.69
5753;BME280;2901;42.140;24.760;2023-06-14T11:22:53;99141.75;;;30.98;55.12
5753;BME280;2901;42.140;24.760;2023-06-14T11:25:19;99140.75;;;30.89;55.63
5753;BME280;2901;42.140;24.760;2023-06-14T11:27:45;99134.88;;;30.85;56.12
5753;BME280;2901;42.140;24.760;2023-06-14T11:30:13;99134.00;;;30.95;55.67
5753;BME280;2901;42.140;24.760;2023-06-14T11:32:39;99135.63;;;31.15;55.22
5753;BME280;2901;42.140;24.760;2023-06-14T11:35:05;99130.22;;;31.24;54.38
5753;BME280;2901;42.140;24.760;2023-06-14T11:37:31;99129.72;;;31.11;53.05
5753;BME280;2901;42.140;24.760;2023-06-14T11:40:00;99128.50;;;31.23;53.47
5753;BME280;2901;42.140;24.760;2023-06-14T11:42:29;99127.84;;;31.21;53.55
5753;BME280;2901;42.140;24.760;2023-06-14T11:44:55;99127.78;;;31.31;53.30
5753;BME280;2901;42.140;24.760;2023-06-14T11:47:21;99122.88;;;31.26;53.97
5753;BME280;2901;42.140;24.760;2023-06-14T11:49:47;99121.22;;;31.16;54.42
5753;BME280;2901;42.140;24.760;2023-06-14T11:52:13;99116.41;;;30.92;54.64
5753;BME280;2901;42.140;24.760;2023-06-14T11:54:39;99111.25;;;30.81;54.39
5753;BME280;2901;42.140;24.760;2023-06-14T11:57:07;99101.88;;;30.95;54.03
5753;BME280;2901;42.140;24.760;2023-06-14T11:59:40;99109.38;;;30.91;52.92
5753;BME280;2901;42.140;24.760;2023-06-14T12:02:06;99104.13;;;31.26;53.18
5753;BME280;2901;42.140;24.760;2023-06-14T12:04:32;99105.81;;;31.45;52.63
5753;BME280;2901;42.140;24.760;2023-06-14T12:07:08;99101.44;;;31.54;51.98
5753;BME280;2901;42.140;24.760;2023-06-14T12:09:40;99097.00;;;31.62;51.95
5753;BME280;2901;42.140;24.760;2023-06-14T12:12:05;99109.88;;;31.76;52.33
5753;BME280;2901;42.140;24.760;2023-06-14T12:14:31;99104.06;;;31.81;51.70
5753;BME280;2901;42.140;24.760;2023-06-14T12:17:04;99087.22;;;31.71;53.03
5753;BME280;2901;42.140;24.760;2023-06-14T12:19:41;99094.91;;;31.92;53.49
5753;BME280;2901;42.140;24.760;2023-06-14T12:22:09;99095.13;;;31.98;51.79
5753;BME280;2901;42.140;24.760;2023-06-14T12:24:35;99092.03;;;31.85;51.43
5753;BME280;2901;42.140;24.760;2023-06-14T12:27:00;99089.59;;;31.74;50.44
5753;BME280;2901;42.140;24.760;2023-06-14T12:29:28;99078.19;;;31.09;53.21
5753;BME280;2901;42.140;24.760;2023-06-14T12:31:53;99076.84;;;30.86;54.47
5753;BME280;2901;42.140;24.760;2023-06-14T12:34:21;99075.03;;;30.59;55.40
5753;BME280;2901;42.140;24.760;2023-06-14T12:36:47;99076.34;;;30.36;56.59
5753;BME280;2901;42.140;24.760;2023-06-14T12:39:12;99065.72;;;30.07;56.07
5753;BME280;2901;42.140;24.760;2023-06-14T12:41:38;99071.75;;;30.19;55.79
5753;BME280;2901;42.140;24.760;2023-06-14T12:44:04;99069.94;;;29.91;57.75
5753;BME280;2901;42.140;24.760;2023-06-14T12:46:32;99059.88;;;30.31;58.16
5753;BME280;2901;42.140;24.760;2023-06-14T12:48:58;99058.63;;;30.35;56.34
5753;BME280;2901;42.140;24.760;2023-06-14T12:51:23;99054.81;;;30.37;55.57
5753;BME280;2901;42.140;24.760;2023-06-14T12:53:50;99046.31;;;30.61;56.55
5753;BME280;2901;42.140;24.760;2023-06-14T12:56:16;99054.88;;;31.02;54.44
5753;BME280;2901;42.140;24.760;2023-06-14T12:58:42;99046.72;;;31.38;52.67
5753;BME280;2901;42.140;24.760;2023-06-14T13:01:07;99046.84;;;31.64;51.88
5753;BME280;2901;42.140;24.760;2023-06-14T13:03:33;99044.09;;;32.00;50.18
5753;BME280;2901;42.140;24.760;2023-06-14T13:06:00;99056.63;;;32.43;47.25
5753;BME280;2901;42.140;24.760;2023-06-14T13:08:26;99051.25;;;32.60;45.84
5753;BME280;2901;42.140;24.760;2023-06-14T13:10:51;99049.75;;;32.66;46.70
5753;BME280;2901;42.140;24.760;2023-06-14T13:13:17;99056.94;;;32.65;45.85
5753;BME280;2901;42.140;24.760;2023-06-14T13:15:42;99053.53;;;32.89;45.61
5753;BME280;2901;42.140;24.760;2023-06-14T13:18:08;99046.72;;;33.03;46.46
5753;BME280;2901;42.140;24.760;2023-06-14T13:20:34;99048.19;;;32.97;45.40
5753;BME280;2901;42.140;24.760;2023-06-14T13:22:59;99051.38;;;33.01;45.81